Time;durP1;ratioP1;P1;durP2;ratioP2;P2;SDS_P1;SDS_P2;PMS_P1;PMS_P2;Temp;Humidity;BMP_temperature;BMP_pressure;BME280_temperature;BME280_humidity;BME280_pressure;Samples;Min_cycle;Max_cycle;Signal;HPM_P1;HPM_P2
2022/12/22 03:27:14;;;;;;;52.75;18.25;;;7.10;99.90;;;;;;6171597;23;20456;-85
2022/12/22 03:29:40;;;;;;;50.28;16.80;;;7.00;99.90;;;;;;6189598;23;20023;-85
2022/12/22 03:32:06;;;;;;;53.17;17.23;;;7.70;99.90;;;;;;6190604;23;20012;-84
2022/12/22 03:34:31;;;;;;;48.80;16.08;;;7.00;99.90;;;;;;6164855;23;20028;-84
2022/12/22 03:36:57;;;;;;;48.67;16.95;;;7.00;99.90;;;;;;6164900;23;20020;-83
2022/12/22 03:39:23;;;;;;;56.75;16.95;;;7.10;99.90;;;;;;6190246;23;20733;-85
2022/12/22 03:47:17;;;;;;;70.50;16.48;;;7.00;99.90;;;;;;6215357;23;20059;-84
2022/12/22 03:49:43;;;;;;;54.30;16.33;;;7.00;99.90;;;;;;6140436;23;20031;-85
2022/12/22 03:52:08;;;;;;;111.78;19.00;;;7.00;99.90;;;;;;6139545;23;20087;-85
2022/12/22 03:54:34;;;;;;;50.55;15.38;;;7.10;99.90;;;;;;6164956;23;20383;-84
2022/12/22 03:57:00;;;;;;;102.97;17.40;;;7.00;99.90;;;;;;6190129;23;20024;-84
2022/12/22 03:59:26;;;;;;;116.22;18.38;;;6.90;99.90;;;;;;6190311;23;20027;-85
2022/12/22 04:01:53;;;;;;;174.73;20.35;;;6.90;99.90;;;;;;6140366;23;20018;-85
2022/12/22 04:04:21;;;;;;;88.55;17.20;;;6.80;99.90;;;;;;6164861;23;20016;-85
2022/12/22 04:06:47;;;;;;;130.68;15.68;;;6.80;99.90;;;;;;6188637;23;20015;-85
2022/12/22 04:09:13;;;;;;;187.70;18.05;;;6.70;99.90;;;;;;6213989;23;20584;-84
2022/12/22 04:14:23;;;;;;;82.45;11.90;;;;;;;;;;6213933;23;20028;-85
2022/12/22 04:16:49;;;;;;;146.75;14.65;;;6.60;99.90;;;;;;6188365;23;20073;-84
2022/12/22 04:19:15;;;;;;;54.47;10.82;;;6.40;99.90;;;;;;6164376;23;20024;-85
2022/12/22 04:21:41;;;;;;;127.05;13.70;;;6.60;99.90;;;;;;6214578;23;20020;-85
2022/12/22 04:24:07;;;;;;;130.57;14.25;;;6.40;99.90;;;;;;6189675;23;20413;-84
2022/12/22 04:26:34;;;;;;;70.03;10.77;;;6.30;99.90;;;;;;6141522;23;20020;-84
2022/12/22 04:29:00;;;;;;;113.82;12.45;;;6.40;99.90;;;;;;6190658;23;20019;-84
2022/12/22 04:31:26;;;;;;;120.00;13.45;;;6.30;99.90;;;;;;6191013;23;20521;-84
2022/12/22 04:33:51;;;;;;;114.70;11.73;;;6.20;99.90;;;;;;6190269;23;20493;-85
2022/12/22 04:36:18;;;;;;;94.28;11.20;;;6.10;99.90;;;;;;6165690;23;20051;-85
2022/12/22 04:38:44;;;;;;;47.83;9.43;;;6.10;99.90;;;;;;6190826;23;20024;-84
2022/12/22 04:41:10;;;;;;;74.95;9.35;;;6.20;99.90;;;;;;6215725;23;20020;-85
2022/12/22 04:43:36;;;;;;;112.53;10.50;;;4.90;99.90;;;;;;6165659;23;20193;-84
2022/12/22 04:46:02;;;;;;;56.55;7.90;;;6.10;99.90;;;;;;6189649;23;20031;-84
2022/12/22 04:48:29;;;;;;;77.75;8.68;;;5.90;99.90;;;;;;6215537;23;20284;-86
2022/12/22 04:50:56;;;;;;;93.05;9.02;;;5.80;99.90;;;;;;6189754;23;20016;-84
2022/12/22 04:53:23;;;;;;;26.50;5.80;;;5.70;99.90;;;;;;6214781;23;20012;-84
2022/12/22 04:55:54;;;;;;;28.95;5.30;;;5.60;99.90;;;;;;6215331;23;20127;-86
2022/12/22 04:58:20;;;;;;;40.03;6.43;;;5.60;99.90;;;;;;6188726;23;20020;-84
2022/12/22 05:00:48;;;;;;;31.08;6.13;;;5.50;99.90;;;;;;6215363;23;20020;-85
2022/12/22 05:03:14;;;;;;;42.08;5.70;;;5.60;99.90;;;;;;6214478;23;20090;-84
2022/12/22 05:05:40;;;;;;;60.58;6.25;;;5.30;99.90;;;;;;6189583;23;20102;-84
2022/12/22 05:08:06;;;;;;;60.50;7.45;;;5.30;99.90;;;;;;6213451;23;20024;-85
2022/12/22 05:10:32;;;;;;;93.85;7.80;;;5.40;99.90;;;;;;6164899;23;20016;-84
2022/12/22 05:12:58;;;;;;;31.85;5.78;;;5.30;99.90;;;;;;6163506;23;20020;-85
2022/12/22 05:15:26;;;;;;;31.85;5.07;;;5.20;99.90;;;;;;6189481;23;20061;-84
2022/12/22 05:17:53;;;;;;;43.88;5.72;;;5.20;99.90;;;;;;6213835;23;20031;-86
2022/12/22 05:20:20;;;;;;;27.23;5.55;;;5.10;99.90;;;;;;6214405;23;20027;-84
2022/12/22 05:22:46;;;;;;;23.23;4.75;;;5.10;99.90;;;;;;6214275;23;20442;-84
2022/12/22 05:25:15;;;;;;;65.30;6.78;;;5.00;99.90;;;;;;6214054;23;20020;-84
2022/12/22 05:27:42;;;;;;;14.80;5.15;;;5.00;99.90;;;;;;6214146;23;20467;-84
2022/12/22 05:30:08;;;;;;;23.30;4.80;;;4.20;99.90;;;;;;6213865;23;20359;-85
2022/12/22 05:32:34;;;;;;;20.25;5.35;;;4.90;99.90;;;;;;6214063;23;20749;-85
2022/12/22 05:35:02;;;;;;;18.20;4.53;;;4.90;99.90;;;;;;6213911;23;20020;-84
2022/12/22 05:37:28;;;;;;;45.25;6.68;;;5.10;99.90;;;;;;6214409;23;20055;-84
2022/12/22 05:39:54;;;;;;;35.50;5.53;;;4.90;99.90;;;;;;6163946;23;20024;-84
2022/12/22 05:42:34;;;;;;;35.40;5.45;;;4.90;99.90;;;;;;6189131;23;20020;-85
2022/12/22 05:45:17;;;;;;;43.47;5.78;;;4.90;99.90;;;;;;6213613;23;20020;-84
2022/12/22 05:47:45;;;;;;;20.17;4.07;;;4.80;99.90;;;;;;6214643;23;20462;-84
2022/12/22 05:50:13;;;;;;;83.53;6.05;;;4.90;99.90;;;;;;6213602;23;20034;-83
2022/12/22 05:52:39;;;;;;;92.00;6.53;;;4.90;99.90;;;;;;6213358;23;20047;-84
2022/12/22 05:55:06;;;;;;;60.72;4.97;;;4.80;99.90;;;;;;6213749;23;20530;-85
2022/12/22 05:57:32;;;;;;;50.17;4.68;;;4.70;99.90;;;;;;6213939;23;20351;-84
2022/12/22 05:59:57;;;;;;;70.53;6.15;;;4.70;99.90;;;;;;6164116;23;20020;-85
2022/12/22 06:02:23;;;;;;;45.63;4.68;;;5.00;99.90;;;;;;6212743;23;20043;-84
2022/12/22 06:04:49;;;;;;;76.32;5.70;;;4.70;99.90;;;;;;6213610;23;20075;-85
2022/12/22 06:07:15;;;;;;;56.58;4.68;;;4.70;99.90;;;;;;6187998;23;20016;-84
2022/12/22 06:09:43;;;;;;;15.98;2.47;;;4.90;99.90;;;;;;6213874;23;20340;-84
2022/12/22 06:12:09;;;;;;;20.48;3.17;;;4.60;99.90;;;;;;6187224;23;20016;-84
2022/12/22 06:14:35;;;;;;;33.03;3.10;;;4.50;99.90;;;;;;6213198;23;20098;-84
2022/12/22 06:17:00;;;;;;;90.90;5.72;;;4.50;99.90;;;;;;6187956;23;20016;-84
2022/12/22 06:19:26;;;;;;;59.03;5.13;;;4.40;99.90;;;;;;6212935;23;20074;-84
2022/12/22 06:21:52;;;;;;;67.90;5.82;;;4.40;99.90;;;;;;6162707;23;20297;-83
2022/12/22 06:24:18;;;;;;;42.00;4.85;;;4.30;99.90;;;;;;6187411;23;20020;-84
2022/12/22 06:26:43;;;;;;;55.95;5.65;;;4.70;99.90;;;;;;6188879;23;20020;-84
2022/12/22 06:29:12;;;;;;;18.42;3.00;;;4.20;99.90;;;;;;6138870;23;20026;-84
2022/12/22 06:31:38;;;;;;;28.48;3.53;;;4.60;99.90;;;;;;6213149;23;20012;-85
2022/12/22 06:34:07;;;;;;;35.60;3.60;;;4.10;99.90;;;;;;6212535;23;20197;-87
2022/12/22 06:36:44;;;;;;;45.22;3.88;;;4.30;99.90;;;;;;6189984;23;20031;-83
2022/12/22 06:39:14;;;;;;;24.98;3.17;;;4.10;99.90;;;;;;6211512;23;20028;-85
2022/12/22 06:44:25;;;;;;;77.07;5.63;;;4.20;99.90;;;;;;6210435;23;20196;-84
2022/12/22 06:46:51;;;;;;;30.33;3.35;;;4.20;99.90;;;;;;6212523;23;20082;-84
2022/12/22 06:49:17;;;;;;;47.60;4.15;;;5.40;99.90;;;;;;6187371;23;20028;-85
2022/12/22 06:51:43;;;;;;;10.80;3.08;;;5.00;99.90;;;;;;6188175;23;20360;-86
2022/12/22 06:54:09;;;;;;;22.08;3.35;;;3.50;99.90;;;;;;6211578;23;20074;-86
2022/12/22 06:56:35;;;;;;;32.33;4.60;;;4.10;99.90;;;;;;6163927;23;20042;-87
2022/12/22 06:59:00;;;;;;;34.47;4.28;;;3.90;99.90;;;;;;6215379;23;20444;-85
2022/12/22 07:01:27;;;;;;;43.38;4.15;;;3.90;99.90;;;;;;6214381;23;20243;-86
2022/12/22 07:03:52;;;;;;;45.47;4.55;;;2.90;99.90;;;;;;6188920;23;20030;-86
2022/12/22 07:06:19;;;;;;;68.22;6.47;;;3.90;99.90;;;;;;6213602;23;20016;-85
2022/12/22 07:08:47;;;;;;;18.77;3.50;;;;;;;;;;6165011;23;20020;-86
2022/12/22 07:11:16;;;;;;;25.15;4.07;;;4.00;99.90;;;;;;6213599;23;20019;-86
2022/12/22 07:13:52;;;;;;;;;;;;;;;;;;;;;
2022/12/22 07:16:26;;;;;;;25.60;4.38;;;4.00;99.90;;;;;;6191182;23;20016;-88
2022/12/22 07:18:52;;;;;;;57.67;5.63;;;4.30;99.90;;;;;;6190104;23;20097;-87
2022/12/22 07:21:17;;;;;;;20.90;4.32;;;4.10;99.90;;;;;;6188891;23;20020;-85
2022/12/22 07:23:43;;;;;;;25.88;4.47;;;4.40;99.90;;;;;;6214902;23;20039;-86
2022/12/22 07:26:14;;;;;;;20.90;4.30;;;4.80;99.90;;;;;;6189691;23;20056;-87
2022/12/22 07:29:01;;;;;;;52.65;5.47;;;5.30;99.90;;;;;;6189593;23;20062;-86
2022/12/22 07:31:28;;;;;;;16.40;4.25;;;4.20;99.90;;;;;;6213939;23;20027;-87
2022/12/22 07:34:04;;;;;;;;;;;;;;;;;;;;;
2022/12/22 07:36:30;;;;;;;;;;;4.40;99.90;;;;;;6214370;23;20653;-85
2022/12/22 07:38:59;;;;;;;17.45;6.07;;;4.70;99.90;;;;;;6190406;23;19943;-85
2022/12/22 07:44:11;;;;;;;14.25;6.25;;;4.70;99.90;;;;;;6212068;23;20024;-84
2022/12/22 07:46:38;;;;;;;15.55;7.03;;;4.50;99.90;;;;;;6190555;23;20024;-86
2022/12/22 07:52:00;;;;;;;17.98;7.70;;;4.50;99.90;;;;;;6133227;23;20452;-84
2022/12/22 07:54:27;;;;;;;21.45;8.27;;;4.60;99.90;;;;;;6162439;23;20027;-84
2022/12/22 07:56:53;;;;;;;20.33;7.70;;;4.60;99.90;;;;;;6213337;23;20073;-85
2022/12/22 07:59:22;;;;;;;20.10;8.77;;;4.60;99.90;;;;;;6215828;23;20069;-86
2022/12/22 08:01:47;;;;;;;24.38;8.95;;;4.70;99.90;;;;;;6215323;23;20016;-87
2022/12/22 08:04:14;;;;;;;25.38;9.00;;;4.80;99.90;;;;;;6190312;23;20082;-87
2022/12/22 08:06:42;;;;;;;18.02;8.88;;;4.70;99.90;;;;;;6214651;23;20048;-86
2022/12/22 08:12:56;;;;;;;26.95;9.18;;;6.50;99.90;;;;;;6216926;23;20020;-90
2022/12/22 08:16:31;;;;;;;;;;;;;;;;;;;;;
2022/12/22 08:19:20;;;;;;;20.58;8.50;;;4.90;99.90;;;;;;6176029;23;20067;-92
2022/12/22 08:22:25;;;;;;;16.23;7.22;;;4.70;99.90;;;;;;6220628;23;20035;-89
2022/12/22 08:25:57;;;;;;;18.90;6.82;;;4.70;99.90;;;;;;6187594;23;20459;-91
2022/12/22 08:28:54;;;;;;;16.35;5.88;;;4.60;99.90;;;;;;6144702;23;20020;-89
2022/12/22 08:31:26;;;;;;;16.70;5.93;;;4.60;99.90;;;;;;6186014;23;20066;-89
2022/12/22 08:42:06;;;;;;;;;;;;;;;;;;;;;
2022/12/22 08:45:14;;;;;;;14.80;6.32;;;4.80;99.90;;;;;;5979934;23;20657;-92
2022/12/22 08:47:51;;;;;;;14.50;6.72;;;5.00;99.90;;;;;;5996887;23;20037;-91
2022/12/22 08:50:19;;;;;;;16.25;6.40;;;6.50;99.90;;;;;;6095144;23;20316;-91
2022/12/22 08:53:14;;;;;;;;;;;;;;;;;;;;;
2022/12/22 08:56:06;;;;;;;18.98;6.53;;;5.30;99.90;;;;;;6095866;23;20030;-89
2022/12/22 08:59:08;;;;;;;;;;;;;;;;;;;;;
2022/12/22 09:01:52;;;;;;;13.77;5.78;;;5.40;99.90;;;;;;6187380;23;20017;-90
2022/12/22 09:04:24;;;;;;;16.30;6.38;;;5.10;99.90;;;;;;6160909;23;20023;-88
2022/12/22 09:07:08;;;;;;;13.23;5.50;;;5.40;99.90;;;;;;6162640;23;20451;-90
2022/12/22 09:09:58;;;;;;;16.67;5.15;;;5.60;99.90;;;;;;6161836;23;20056;-89
2022/12/22 09:13:03;;;;;;;20.25;4.90;;;5.70;99.90;;;;;;6163750;23;20092;-90
2022/12/22 09:16:06;;;;;;;;;;;;;;;;;;;;;
2022/12/22 09:18:43;;;;;;;16.73;5.10;;;5.80;99.90;;;;;;6169416;23;20393;-89
2022/12/22 09:21:26;;;;;;;15.50;4.40;;;5.60;99.90;;;;;;6138676;23;20021;-89
2022/12/22 09:24:08;;;;;;;9.38;4.03;;;5.60;99.90;;;;;;6120052;23;20016;-89
2022/12/22 09:26:56;;;;;;;15.27;4.45;;;5.30;99.90;;;;;;6160978;23;20054;-89
2022/12/22 09:29:38;;;;;;;;;;;;;;;;;;;;;
2022/12/22 09:32:42;;;;;;;16.75;4.97;;;6.00;99.90;;;;;;6184887;23;20029;-90
2022/12/22 09:35:15;;;;;;;18.85;5.18;;;6.10;99.90;;;;;;6145243;23;20435;-90
2022/12/22 09:37:43;;;;;;;20.08;4.38;;;6.40;99.90;;;;;;6139093;23;20016;-89
2022/12/22 09:40:39;;;;;;;11.95;3.78;;;5.20;99.90;;;;;;6162261;23;20024;-88
2022/12/22 09:43:19;;;;;;;16.15;3.95;;;6.60;99.90;;;;;;6184756;23;20218;-90
2022/12/22 09:48:43;;;;;;;11.50;3.40;;;6.50;99.90;;;;;;6164729;23;20100;-89
2022/12/22 09:51:50;;;;;;;13.52;3.22;;;6.30;99.90;;;;;;6186113;23;20024;-89
2022/12/22 09:54:33;;;;;;;12.35;3.28;;;5.60;99.90;;;;;;6184209;23;20027;-89
2022/12/22 09:57:28;;;;;;;;;;;;;;;;;;;;;
2022/12/22 10:00:46;;;;;;;11.93;2.78;;;6.00;99.90;;;;;;6194725;23;20762;-89
2022/12/22 10:03:11;;;;;;;12.05;2.33;;;6.20;99.90;;;;;;6192373;23;20048;-89
2022/12/22 10:06:10;;;;;;;10.05;2.28;;;6.30;99.90;;;;;;6190492;23;20090;-90
2022/12/22 10:09:09;;;;;;;15.23;2.40;;;5.40;99.90;;;;;;6216118;23;20074;-90
2022/12/22 10:11:49;;;;;;;8.63;2.15;;;7.00;99.90;;;;;;6216514;23;20020;-90
2022/12/22 10:14:29;;;;;;;10.57;2.00;;;6.30;99.90;;;;;;6218615;23;20023;-89
2022/12/22 10:18:01;;;;;;;19.73;2.75;;;7.20;99.90;;;;;;6168366;23;20364;-90
2022/12/22 10:20:45;;;;;;;19.77;3.40;;;7.30;99.90;;;;;;6216355;23;20331;-89
2022/12/22 10:23:48;;;;;;;;;;;;;;;;;;;;;
2022/12/22 10:26:35;;;;;;;14.40;2.92;;;7.70;99.90;;;;;;6210905;23;20012;-90
2022/12/22 10:29:47;;;;;;;;;;;;;;;;;;;;;
2022/12/22 10:32:19;;;;;;;15.70;3.00;;;8.80;99.90;;;;;;6216958;23;20051;-87
2022/12/22 10:35:33;;;;;;;13.27;2.85;;;9.60;99.90;;;;;;6216199;23;20099;-87
2022/12/22 10:38:53;;;;;;;12.02;2.35;;;9.80;99.90;;;;;;6217984;23;20067;-90
2022/12/22 10:41:32;;;;;;;12.55;2.08;;;9.60;99.90;;;;;;6196469;23;20016;-90
2022/12/22 10:44:17;;;;;;;12.73;2.50;;;8.60;99.90;;;;;;6217204;23;20171;-88
2022/12/22 10:47:00;;;;;;;13.60;2.22;;;9.70;99.90;;;;;;6224441;23;20016;-87
2022/12/22 10:49:36;;;;;;;11.82;2.15;;;9.90;99.90;;;;;;6216850;23;20023;-87
2022/12/22 10:52:56;;;;;;;;;;;;;;;;;;;;;
2022/12/22 10:55:54;;;;;;;13.52;2.80;;;10.80;99.90;;;;;;6154490;23;20109;-90
2022/12/22 10:59:24;;;;;;;11.73;2.08;;;8.30;99.90;;;;;;4700328;27;10194267;-86
2022/12/22 11:01:49;;;;;;;6.72;2.22;;;8.90;99.90;;;;;;5035845;28;20391;-86
2022/12/22 11:04:23;;;;;;;12.00;2.25;;;8.60;99.90;;;;;;5020945;28;20046;-87
2022/12/22 11:07:10;;;;;;;11.52;2.60;;;8.30;99.90;;;;;;5011007;28;20050;-88
2022/12/22 11:09:49;;;;;;;13.65;2.13;;;7.30;99.90;;;;;;5014183;28;20068;-87
2022/12/22 11:12:38;;;;;;;12.35;2.33;;;7.80;99.90;;;;;;5016779;28;20053;-87
2022/12/22 11:15:28;;;;;;;12.27;2.60;;;6.80;99.90;;;;;;5031408;28;20103;-87
2022/12/22 11:18:44;;;;;;;;;;;;;;;;;;;;;
2022/12/22 11:22:08;;;;;;;9.40;2.13;;;7.50;99.90;;;;;;5030539;28;20415;-88
2022/12/22 11:25:15;;;;;;;11.70;2.15;;;7.50;99.90;;;;;;5013527;28;20611;-89
2022/12/22 11:28:49;;;;;;;10.57;2.22;;;8.10;99.90;;;;;;4996901;28;20049;-88
2022/12/22 11:32:01;;;;;;;;;;;;;;;;;;;;;
2022/12/22 11:34:46;;;;;;;9.43;2.08;;;7.50;99.90;;;;;;5028745;28;20118;-88
2022/12/22 11:37:33;;;;;;;10.70;2.28;;;7.40;99.90;;;;;;5028376;28;20140;-88
2022/12/22 11:40:48;;;;;;;14.98;2.88;;;7.20;99.90;;;;;;5009878;28;20191;-90
2022/12/22 11:43:24;;;;;;;17.15;2.97;;;7.30;99.90;;;;;;5018041;28;20046;-86
2022/12/22 11:46:25;;;;;;;10.98;2.30;;;8.30;99.90;;;;;;5008718;28;20050;-89
2022/12/22 11:49:10;;;;;;;;;;;;;;;;;;;;;
2022/12/22 11:51:56;;;;;;;14.00;2.83;;;7.10;99.90;;;;;;5030956;28;20050;-87
2022/12/22 11:54:37;;;;;;;14.05;3.22;;;7.00;99.90;;;;;;5012352;28;20435;-86
2022/12/22 11:57:33;;;;;;;9.82;2.95;;;7.10;99.90;;;;;;5029769;28;20771;-84
2022/12/22 12:00:09;;;;;;;13.07;2.40;;;7.00;99.90;;;;;;5012060;28;20060;-85
2022/12/22 12:03:09;;;;;;;11.88;2.15;;;6.90;99.90;;;;;;5008667;28;20108;-85
2022/12/22 12:06:08;;;;;;;10.65;2.17;;;6.90;99.90;;;;;;5013260;28;20045;-85
2022/12/22 12:09:32;;;;;;;;;;;;;;;;;;;;;
2022/12/22 12:12:10;;;;;;;9.70;2.10;;;6.90;99.90;;;;;;5018432;28;20521;-86
2022/12/22 12:15:05;;;;;;;11.90;2.40;;;7.00;99.90;;;;;;5016880;28;20046;-85
2022/12/22 12:17:55;;;;;;;12.90;2.08;;;6.90;99.90;;;;;;4994077;28;20500;-87
2022/12/22 12:20:30;;;;;;;11.23;2.92;;;8.20;99.90;;;;;;5014275;28;20046;-86
2022/12/22 12:23:17;;;;;;;15.98;2.20;;;7.00;99.90;;;;;;4998010;28;20085;-86
2022/12/22 12:26:03;;;;;;;13.57;2.28;;;7.10;99.90;;;;;;5019303;28;20046;-86
2022/12/22 12:28:54;;;;;;;9.88;2.03;;;7.00;99.90;;;;;;5000318;28;20111;-86
2022/12/22 12:31:28;;;;;;;8.13;2.15;;;7.30;99.90;;;;;;5004774;28;20089;-87
2022/12/22 12:34:00;;;;;;;11.82;2.40;;;7.30;99.90;;;;;;4994099;28;20085;-88
2022/12/22 12:36:42;;;;;;;14.55;2.80;;;7.20;99.90;;;;;;5018811;28;20407;-86
2022/12/22 12:39:47;;;;;;;13.68;2.33;;;7.20;99.90;;;;;;5014399;28;20056;-86
2022/12/22 12:42:43;;;;;;;15.43;2.55;;;6.10;99.90;;;;;;5021572;28;20494;-88
2022/12/22 12:45:31;;;;;;;11.63;2.17;;;7.10;99.90;;;;;;5001225;28;20088;-85
2022/12/22 12:48:36;;;;;;;11.50;2.28;;;7.20;99.90;;;;;;4988487;28;20050;-88
2022/12/22 12:51:56;;;;;;;10.43;2.25;;;7.20;99.90;;;;;;4998180;28;20050;-85
2022/12/22 12:54:37;;;;;;;13.23;2.40;;;7.30;99.90;;;;;;4961010;28;20140;-84
2022/12/22 12:57:09;;;;;;;17.48;2.63;;;7.20;99.90;;;;;;5018603;28;20049;-86
2022/12/22 12:59:44;;;;;;;8.63;2.20;;;7.50;99.90;;;;;;5015579;28;20053;-85
2022/12/22 13:02:33;;;;;;;8.75;2.40;;;7.30;99.90;;;;;;4996081;28;20060;-86
2022/12/22 13:05:35;;;;;;;14.93;2.00;;;7.20;99.90;;;;;;5012526;28;20054;-86
2022/12/22 13:08:16;;;;;;;8.43;1.88;;;7.20;99.90;;;;;;5000952;28;20112;-87
2022/12/22 13:10:48;;;;;;;14.20;2.10;;;7.20;99.90;;;;;;4995703;28;20069;-86
2022/12/22 13:13:23;;;;;;;10.68;2.47;;;7.20;99.90;;;;;;5000088;28;20149;-85
2022/12/22 13:16:09;;;;;;;11.38;2.28;;;7.20;99.90;;;;;;5020823;28;20096;-83
2022/12/22 13:19:25;;;;;;;;;;;;;;;;;;;;;
2022/12/22 13:22:12;;;;;;;8.18;1.80;;;7.70;99.90;;;;;;5005563;28;20136;-88
2022/12/22 13:25:04;;;;;;;9.45;2.10;;;6.70;99.90;;;;;;4975159;28;20042;-91
2022/12/22 13:27:35;;;;;;;11.48;1.95;;;7.50;99.90;;;;;;5015660;28;20053;-91
2022/12/22 13:30:03;;;;;;;12.57;2.10;;;8.00;99.90;;;;;;5012271;28;20395;-87
2022/12/22 13:32:52;;;;;;;;;;;;;;;;;;;;;
2022/12/22 13:36:02;;;;;;;6.80;1.98;;;7.70;99.90;;;;;;5002348;28;20042;-89
2022/12/22 13:38:39;;;;;;;13.25;2.05;;;7.80;99.90;;;;;;4994245;28;20086;-87
2022/12/22 13:41:40;;;;;;;12.57;2.20;;;7.80;99.90;;;;;;4991642;28;20506;-88
2022/12/22 13:44:40;;;;;;;11.35;2.17;;;6.70;99.90;;;;;;5008067;28;20195;-88
2022/12/22 13:47:34;;;;;;;12.38;1.80;;;7.70;99.90;;;;;;4998594;28;20627;-89
2022/12/22 13:50:30;;;;;;;14.85;2.35;;;6.60;99.90;;;;;;5014207;28;20045;-87
2022/12/22 13:53:15;;;;;;;12.05;2.45;;;7.80;99.90;;;;;;5012557;28;20062;-89
2022/12/22 13:55:48;;;;;;;8.15;2.00;;;9.10;99.90;;;;;;5000569;28;20140;-88
2022/12/22 13:59:09;;;;;;;9.13;1.75;;;7.60;99.90;;;;;;4996641;28;20135;-87
2022/12/22 14:01:57;;;;;;;10.32;2.38;;;7.80;99.90;;;;;;4955951;28;20093;-88
2022/12/22 14:05:04;;;;;;;12.95;2.22;;;7.60;99.90;;;;;;5017872;28;20114;-87
2022/12/22 14:07:30;;;;;;;10.60;2.88;;;7.60;99.90;;;;;;5009812;28;20438;-88
2022/12/22 14:09:59;;;;;;;8.57;1.90;;;7.60;99.90;;;;;;4992828;28;20049;-88
2022/12/22 14:12:51;;;;;;;11.80;2.28;;;7.60;99.90;;;;;;5018892;28;20061;-87
2022/12/22 14:15:45;;;;;;;10.38;2.10;;;7.50;99.90;;;;;;5009587;28;20062;-87
2022/12/22 14:18:26;;;;;;;9.05;2.13;;;6.90;99.90;;;;;;4981891;28;20046;-90
2022/12/22 14:21:08;;;;;;;;;;;;;;;;;;;;;
2022/12/22 14:23:48;;;;;;;8.02;1.90;;;7.60;99.90;;;;;;4998154;28;20054;-88
2022/12/22 14:26:34;;;;;;;6.32;2.00;;;7.80;99.90;;;;;;5013502;28;20068;-87
2022/12/22 14:29:00;;;;;;;14.15;2.83;;;6.90;99.90;;;;;;5002349;28;20038;-87
2022/12/22 14:31:28;;;;;;;11.88;2.10;;;7.60;99.90;;;;;;5013992;28;20057;-87
2022/12/22 14:34:20;;;;;;;6.32;2.55;;;7.60;99.90;;;;;;5013397;28;20050;-92
2022/12/22 14:39:59;;;;;;;;;;;;;;;;;;;;;
2022/12/22 14:42:53;;;;;;;11.10;2.75;;;7.90;99.90;;;;;;5012671;28;20061;-88
2022/12/22 14:45:27;;;;;;;12.60;3.75;;;6.30;99.90;;;;;;4998716;28;20038;-88
2022/12/22 14:48:09;;;;;;;;;;;;;;;;;;;;;
2022/12/22 14:51:09;;;;;;;9.73;3.97;;;7.50;99.90;;;;;;4999536;28;20062;-88
2022/12/22 14:54:01;;;;;;;12.88;3.40;;;8.40;99.90;;;;;;4985191;28;20041;-87
2022/12/22 14:56:34;;;;;;;9.80;2.60;;;6.60;99.90;;;;;;5000806;28;20391;-86
2022/12/22 14:59:37;;;;;;;12.02;3.30;;;7.30;99.90;;;;;;5012167;28;20061;-88
2022/12/22 15:02:48;;;;;;;10.88;2.90;;;7.20;99.90;;;;;;5001522;28;20094;-90
2022/12/22 15:08:45;;;;;;;12.63;3.45;;;7.20;99.90;;;;;;5002521;28;20063;-88
2022/12/22 15:11:21;;;;;;;9.18;3.70;;;7.10;99.90;;;;;;4996295;28;20057;-86
2022/12/22 15:14:04;;;;;;;8.77;4.13;;;7.10;99.90;;;;;;5003970;28;20065;-86
2022/12/22 15:17:20;;;;;;;;;;;;;;;;;;;;;
2022/12/22 15:20:27;;;;;;;10.80;4.97;;;7.10;99.90;;;;;;5000898;28;20519;-88
2022/12/22 15:22:55;;;;;;;12.35;5.30;;;7.10;99.90;;;;;;5012033;28;20116;-87
2022/12/22 15:25:38;;;;;;;12.35;5.65;;;6.90;99.90;;;;;;4995457;28;20050;-87
2022/12/22 15:28:50;;;;;;;13.20;5.63;;;6.20;99.90;;;;;;4999575;28;20056;-88
2022/12/22 15:31:26;;;;;;;16.83;6.22;;;7.10;99.90;;;;;;4995461;28;20291;-87
2022/12/22 15:34:33;;;;;;;;;;;;;;;;;;;;;
2022/12/22 15:37:26;;;;;;;13.27;5.95;;;6.90;99.90;;;;;;5005591;28;20444;-86
2022/12/22 15:40:30;;;;;;;;;;;;;;;;;;;;;
2022/12/22 15:43:36;;;;;;;51.90;21.50;;;6.80;99.90;;;;;;5003411;28;20062;-87
2022/12/22 15:46:05;;;;;;;24.38;11.63;;;6.90;99.90;;;;;;5001701;28;20048;-87
2022/12/22 15:48:42;;;;;;;19.23;9.93;;;6.90;99.90;;;;;;4997229;28;20149;-87
2022/12/22 15:51:32;;;;;;;;;;;;;;;;;;;;;
2022/12/22 15:54:10;;;;;;;17.88;10.50;;;7.00;99.90;;;;;;5016117;28;20049;-88
2022/12/22 15:56:45;;;;;;;17.33;10.70;;;6.70;99.90;;;;;;4998054;28;20055;-88
2022/12/22 15:59:27;;;;;;;22.00;15.10;;;8.00;99.90;;;;;;5000992;28;20061;-87
2022/12/22 16:02:08;;;;;;;24.40;16.10;;;6.70;99.90;;;;;;4998877;28;20062;-88
2022/12/22 16:07:39;;;;;;;25.67;14.50;;;7.10;99.90;;;;;;5004078;28;20097;-87
2022/12/22 16:10:16;;;;;;;19.90;12.48;;;6.70;99.90;;;;;;4997107;28;20045;-88
2022/12/22 16:13:01;;;;;;;21.60;12.82;;;6.60;99.90;;;;;;4996233;28;20058;-86
2022/12/22 16:15:35;;;;;;;21.75;13.43;;;6.70;99.90;;;;;;4996530;28;20089;-87
2022/12/22 16:20:59;;;;;;;24.92;13.52;;;6.60;99.90;;;;;;5004293;28;20057;-87
2022/12/22 16:23:41;;;;;;;24.67;14.02;;;5.70;99.90;;;;;;4979968;28;20677;-86
2022/12/22 16:26:09;;;;;;;29.38;15.25;;;6.60;99.90;;;;;;4998555;28;20479;-86
2022/12/22 16:28:43;;;;;;;25.60;13.23;;;6.60;99.90;;;;;;5015028;28;20049;-86
2022/12/22 16:31:18;;;;;;;23.13;15.05;;;6.60;99.90;;;;;;4993036;28;20525;-89
2022/12/22 16:33:53;;;;;;;27.53;14.30;;;6.60;99.90;;;;;;5009305;28;20049;-88
2022/12/22 16:36:21;;;;;;;26.15;15.38;;;6.10;99.90;;;;;;4977357;28;20077;-88
2022/12/22 16:38:50;;;;;;;29.38;17.02;;;6.60;99.90;;;;;;5002120;28;20055;-85
2022/12/22 16:41:33;;;;;;;31.95;17.30;;;6.10;99.90;;;;;;5017977;28;20048;-88
2022/12/22 16:47:20;;;;;;;29.05;17.77;;;6.60;99.90;;;;;;5017744;28;20049;-87
2022/12/22 16:49:49;;;;;;;31.40;17.83;;;6.50;99.90;;;;;;4997091;28;20111;-85
2022/12/22 16:52:27;;;;;;;32.30;19.00;;;6.60;99.90;;;;;;5013361;28;20049;-86
2022/12/22 16:54:56;;;;;;;26.60;16.95;;;6.70;99.90;;;;;;4997395;28;20057;-86
2022/12/22 16:57:31;;;;;;;35.95;21.77;;;6.60;99.90;;;;;;5015012;28;20046;-86
2022/12/22 16:59:56;;;;;;;37.15;22.05;;;6.70;99.90;;;;;;4981519;28;20135;-85
2022/12/22 17:02:33;;;;;;;31.02;17.73;;;6.50;99.90;;;;;;4980728;28;20049;-86
2022/12/22 17:05:08;;;;;;;36.38;19.92;;;6.50;99.90;;;;;;4996672;28;20061;-85
2022/12/22 17:07:33;;;;;;;32.67;20.33;;;6.40;99.90;;;;;;5005502;28;20115;-87
2022/12/22 17:10:01;;;;;;;32.35;19.25;;;5.40;99.90;;;;;;5012580;28;20168;-85
2022/12/22 17:12:35;;;;;;;28.90;18.63;;;6.50;99.90;;;;;;5011464;28;20487;-85
2022/12/22 17:15:01;;;;;;;32.65;18.17;;;6.40;99.90;;;;;;4996917;28;20046;-86
2022/12/22 17:17:32;;;;;;;44.53;23.20;;;6.40;99.90;;;;;;4992989;28;20072;-85
2022/12/22 17:20:00;;;;;;;38.45;21.55;;;5.10;99.90;;;;;;4999343;28;20120;-87
2022/12/22 17:22:32;;;;;;;33.38;20.85;;;6.30;99.90;;;;;;4978520;28;20046;-86
2022/12/22 17:25:03;;;;;;;45.70;25.98;;;5.30;99.90;;;;;;4976326;28;20081;-86
2022/12/22 17:27:35;;;;;;;55.15;32.60;;;6.40;99.90;;;;;;4996706;28;20042;-86
2022/12/22 17:30:05;;;;;;;54.13;30.38;;;6.30;99.90;;;;;;4995038;28;20434;-85
2022/12/22 17:32:31;;;;;;;36.63;21.08;;;6.50;99.90;;;;;;4995016;28;20125;-85
2022/12/22 17:34:59;;;;;;;41.08;20.73;;;6.30;99.90;;;;;;4987417;28;20652;-85
2022/12/22 17:37:28;;;;;;;39.63;20.38;;;6.30;99.90;;;;;;4972843;28;20142;-86
2022/12/22 17:40:02;;;;;;;38.08;19.67;;;5.60;99.90;;;;;;4993290;28;20053;-87
2022/12/22 17:42:35;;;;;;;38.35;19.08;;;6.20;99.90;;;;;;5011119;28;20037;-86
2022/12/22 17:45:12;;;;;;;41.85;19.67;;;6.30;99.90;;;;;;4982009;28;20129;-87
2022/12/22 17:47:38;;;;;;;41.22;20.00;;;5.30;99.90;;;;;;5008626;28;20065;-87
2022/12/22 17:50:06;;;;;;;40.78;20.13;;;6.30;99.90;;;;;;4993918;28;20050;-87
2022/12/22 17:52:32;;;;;;;42.33;20.58;;;6.60;99.90;;;;;;4992229;28;20068;-86
2022/12/22 17:54:58;;;;;;;42.80;20.50;;;5.30;99.90;;;;;;4987317;28;20100;-86
2022/12/22 17:57:37;;;;;;;40.55;20.83;;;6.30;99.90;;;;;;4994107;28;20045;-86
2022/12/22 18:00:18;;;;;;;43.55;20.80;;;6.30;99.90;;;;;;5004968;28;20185;-87
2022/12/22 18:02:44;;;;;;;42.03;21.17;;;6.50;99.90;;;;;;4990770;28;20486;-88
2022/12/22 18:05:17;;;;;;;39.35;20.73;;;6.30;99.90;;;;;;5010660;28;20053;-86
2022/12/22 18:07:43;;;;;;;42.67;21.13;;;6.30;99.90;;;;;;4993249;28;20045;-87
2022/12/22 18:10:36;;;;;;;46.28;22.30;;;6.30;99.90;;;;;;4977221;28;20347;-86
2022/12/22 18:13:19;;;;;;;42.17;20.20;;;6.50;99.90;;;;;;4996917;28;20425;-85
2022/12/22 18:15:56;;;;;;;39.15;19.05;;;6.30;99.90;;;;;;4998370;28;20042;-89
2022/12/22 18:18:22;;;;;;;40.60;20.60;;;6.40;99.90;;;;;;4993105;28;20445;-86
2022/12/22 18:20:49;;;;;;;43.60;20.67;;;6.30;99.90;;;;;;4995211;28;20064;-86
2022/12/22 18:23:41;;;;;;;41.70;20.83;;;6.30;99.90;;;;;;5008224;28;20051;-88
2022/12/22 18:26:42;;;;;;;41.20;19.95;;;6.40;99.90;;;;;;4979215;28;20045;-88
2022/12/22 18:29:54;;;;;;;41.22;20.38;;;5.80;99.90;;;;;;4998708;28;20049;-87
2022/12/22 18:33:08;;;;;;;;;;;;;;;;;;;;;
2022/12/22 18:39:57;;;;;;;48.10;21.55;;;6.60;99.90;;;;;;4980561;28;20049;-88